sensor_id;sensor_type;location;lat;lon;timestamp;temperature;humidity
54684;DHT22;40582;53.100;6.686;2023-05-16T00:02:15;11.20;99.90
54684;DHT22;40582;53.100;6.686;2023-05-16T00:04:41;11.10;99.90
54684;DHT22;40582;53.100;6.686;2023-05-16T00:07:07;11.00;99.90
54684;DHT22;40582;53.100;6.686;2023-05-16T00:09:33;11.00;99.90
54684;DHT22;40582;53.100;6.686;2023-05-16T00:11:58;11.00;99.90
54684;DHT22;40582;53.100;6.686;2023-05-16T00:14:25;10.80;99.90
54684;DHT22;40582;53.100;6.686;2023-05-16T00:16:52;10.80;99.90
54684;DHT22;40582;53.100;6.686;2023-05-16T00:19:18;10.90;99.90
54684;DHT22;40582;53.100;6.686;2023-05-16T00:21:45;10.90;99.90
54684;DHT22;40582;53.100;6.686;2023-05-16T00:24:10;10.90;99.90
54684;DHT22;40582;53.100;6.686;2023-05-16T00:26:36;10.80;99.90
54684;DHT22;40582;53.100;6.686;2023-05-16T00:29:02;10.80;99.90
54684;DHT22;40582;53.100;6.686;2023-05-16T00:31:28;10.70;99.90
54684;DHT22;40582;53.100;6.686;2023-05-16T00:33:53;10.70;99.90
54684;DHT22;40582;53.100;6.686;2023-05-16T00:36:19;10.70;99.90
54684;DHT22;40582;53.100;6.686;2023-05-16T00:38:46;10.70;99.90
54684;DHT22;40582;53.100;6.686;2023-05-16T00:41:12;10.60;99.90
54684;DHT22;40582;53.100;6.686;2023-05-16T00:43:38;10.50;99.90
54684;DHT22;40582;53.100;6.686;2023-05-16T00:46:04;10.50;99.90
54684;DHT22;40582;53.100;6.686;2023-05-16T00:48:30;10.50;99.90
54684;DHT22;40582;53.100;6.686;2023-05-16T00:50:56;10.50;99.90
54684;DHT22;40582;53.100;6.686;2023-05-16T00:53:23;10.50;99.90
54684;DHT22;40582;53.100;6.686;2023-05-16T00:55:50;10.50;99.90
54684;DHT22;40582;53.100;6.686;2023-05-16T00:58:17;10.50;99.90
54684;DHT22;40582;53.100;6.686;2023-05-16T01:00:44;10.40;99.90
54684;DHT22;40582;53.100;6.686;2023-05-16T01:03:11;10.30;99.90
54684;DHT22;40582;53.100;6.686;2023-05-16T01:05:37;10.30;99.90
54684;DHT22;40582;53.100;6.686;2023-05-16T01:08:03;10.30;99.90
54684;DHT22;40582;53.100;6.686;2023-05-16T01:10:40;10.30;99.90
54684;DHT22;40582;53.100;6.686;2023-05-16T01:13:11;10.20;99.90
54684;DHT22;40582;53.100;6.686;2023-05-16T01:16:09;10.10;99.90
54684;DHT22;40582;53.100;6.686;2023-05-16T01:18:51;10.10;99.90
54684;DHT22;40582;53.100;6.686;2023-05-16T01:21:37;10.20;99.90
54684;DHT22;40582;53.100;6.686;2023-05-16T01:24:13;10.20;99.90
54684;DHT22;40582;53.100;6.686;2023-05-16T01:26:44;10.30;99.90
54684;DHT22;40582;53.100;6.686;2023-05-16T01:29:11;10.30;99.90
54684;DHT22;40582;53.100;6.686;2023-05-16T01:31:37;10.30;99.90
54684;DHT22;40582;53.100;6.686;2023-05-16T01:34:03;10.30;99.90
54684;DHT22;40582;53.100;6.686;2023-05-16T01:36:58;10.30;99.90
54684;DHT22;40582;53.100;6.686;2023-05-16T01:39:44;10.20;99.90
54684;DHT22;40582;53.100;6.686;2023-05-16T01:42:13;10.20;99.90
54684;DHT22;40582;53.100;6.686;2023-05-16T01:44:49;10.20;99.90
54684;DHT22;40582;53.100;6.686;2023-05-16T01:47:15;10.20;99.90
54684;DHT22;40582;53.100;6.686;2023-05-16T01:49:54;10.10;99.90
54684;DHT22;40582;53.100;6.686;2023-05-16T01:52:27;10.20;99.90
54684;DHT22;40582;53.100;6.686;2023-05-16T01:54:57;10.30;99.90
54684;DHT22;40582;53.100;6.686;2023-05-16T01:57:25;10.30;99.90
54684;DHT22;40582;53.100;6.686;2023-05-16T01:59:52;10.30;99.90
54684;DHT22;40582;53.100;6.686;2023-05-16T02:02:20;10.20;99.90
54684;DHT22;40582;53.100;6.686;2023-05-16T02:04:46;10.20;99.90
54684;DHT22;40582;53.100;6.686;2023-05-16T02:07:12;10.20;99.90
54684;DHT22;40582;53.100;6.686;2023-05-16T02:09:39;10.10;99.90
54684;DHT22;40582;53.100;6.686;2023-05-16T02:12:05;10.10;99.90
54684;DHT22;40582;53.100;6.686;2023-05-16T02:14:31;10.10;99.90
54684;DHT22;40582;53.100;6.686;2023-05-16T02:16:57;10.10;99.90
54684;DHT22;40582;53.100;6.686;2023-05-16T02:19:22;10.20;99.90
54684;DHT22;40582;53.100;6.686;2023-05-16T02:21:49;10.10;99.90
54684;DHT22;40582;53.100;6.686;2023-05-16T02:24:15;10.10;99.90
54684;DHT22;40582;53.100;6.686;2023-05-16T02:26:41;10.00;99.90
54684;DHT22;40582;53.100;6.686;2023-05-16T02:29:06;10.00;99.90
54684;DHT22;40582;53.100;6.686;2023-05-16T02:31:32;10.00;99.90
54684;DHT22;40582;53.100;6.686;2023-05-16T02:33:59;10.00;99.90
54684;DHT22;40582;53.100;6.686;2023-05-16T02:36:25;10.00;99.90
54684;DHT22;40582;53.100;6.686;2023-05-16T02:38:51;10.00;99.90
54684;DHT22;40582;53.100;6.686;2023-05-16T02:41:17;10.10;99.90
54684;DHT22;40582;53.100;6.686;2023-05-16T02:43:43;10.20;99.90
54684;DHT22;40582;53.100;6.686;2023-05-16T02:48:48;10.30;99.90
54684;DHT22;40582;53.100;6.686;2023-05-16T02:51:14;10.40;99.90
54684;DHT22;40582;53.100;6.686;2023-05-16T02:53:39;10.40;99.90
54684;DHT22;40582;53.100;6.686;2023-05-16T02:56:05;10.50;99.90
54684;DHT22;40582;53.100;6.686;2023-05-16T02:58:32;10.50;99.90
54684;DHT22;40582;53.100;6.686;2023-05-16T03:00:57;10.40;99.90
54684;DHT22;40582;53.100;6.686;2023-05-16T03:03:23;10.40;99.90
54684;DHT22;40582;53.100;6.686;2023-05-16T03:05:49;10.30;99.90
54684;DHT22;40582;53.100;6.686;2023-05-16T03:08:15;10.30;99.90
54684;DHT22;40582;53.100;6.686;2023-05-16T03:10:41;10.30;99.90
54684;DHT22;40582;53.100;6.686;2023-05-16T03:13:07;10.20;99.90
54684;DHT22;40582;53.100;6.686;2023-05-16T03:15:32;10.10;99.90
54684;DHT22;40582;53.100;6.686;2023-05-16T03:17:58;10.10;99.90
54684;DHT22;40582;53.100;6.686;2023-05-16T03:20:23;10.10;99.90
54684;DHT22;40582;53.100;6.686;2023-05-16T03:22:49;10.10;99.90
54684;DHT22;40582;53.100;6.686;2023-05-16T03:25:15;10.10;99.90
54684;DHT22;40582;53.100;6.686;2023-05-16T03:27:41;10.10;99.90
54684;DHT22;40582;53.100;6.686;2023-05-16T03:30:07;10.20;99.90
54684;DHT22;40582;53.100;6.686;2023-05-16T03:32:33;10.20;99.90
54684;DHT22;40582;53.100;6.686;2023-05-16T03:34:59;10.20;99.90
54684;DHT22;40582;53.100;6.686;2023-05-16T03:37:24;10.20;99.90
54684;DHT22;40582;53.100;6.686;2023-05-16T03:39:50;10.10;99.90
54684;DHT22;40582;53.100;6.686;2023-05-16T03:42:16;10.00;99.90
54684;DHT22;40582;53.100;6.686;2023-05-16T03:44:43;10.00;99.90
54684;DHT22;40582;53.100;6.686;2023-05-16T03:47:09;10.00;99.90
54684;DHT22;40582;53.100;6.686;2023-05-16T03:49:35;9.90;99.90
54684;DHT22;40582;53.100;6.686;2023-05-16T03:52:02;9.90;99.90
54684;DHT22;40582;53.100;6.686;2023-05-16T03:54:28;9.90;99.90
54684;DHT22;40582;53.100;6.686;2023-05-16T03:56:54;9.90;99.90
54684;DHT22;40582;53.100;6.686;2023-05-16T03:59:19;9.90;99.90
54684;DHT22;40582;53.100;6.686;2023-05-16T04:01:46;9.90;99.90
54684;DHT22;40582;53.100;6.686;2023-05-16T04:04:12;9.80;99.90
54684;DHT22;40582;53.100;6.686;2023-05-16T04:06:38;9.90;99.90
54684;DHT22;40582;53.100;6.686;2023-05-16T04:09:04;9.90;99.90
54684;DHT22;40582;53.100;6.686;2023-05-16T04:11:31;10.00;99.90
54684;DHT22;40582;53.100;6.686;2023-05-16T04:13:57;10.00;99.90
54684;DHT22;40582;53.100;6.686;2023-05-16T04:16:23;10.00;99.90
54684;DHT22;40582;53.100;6.686;2023-05-16T04:18:48;10.00;99.90
54684;DHT22;40582;53.100;6.686;2023-05-16T04:21:14;9.90;99.90
54684;DHT22;40582;53.100;6.686;2023-05-16T04:23:40;10.00;99.90
54684;DHT22;40582;53.100;6.686;2023-05-16T04:26:06;9.90;99.90
54684;DHT22;40582;53.100;6.686;2023-05-16T04:28:32;10.00;99.90
54684;DHT22;40582;53.100;6.686;2023-05-16T04:30:58;10.00;99.90
54684;DHT22;40582;53.100;6.686;2023-05-16T04:33:23;10.00;99.90
54684;DHT22;40582;53.100;6.686;2023-05-16T04:35:49;9.90;99.90
54684;DHT22;40582;53.100;6.686;2023-05-16T04:38:15;10.00;99.90
54684;DHT22;40582;53.100;6.686;2023-05-16T04:40:41;9.90;99.90
54684;DHT22;40582;53.100;6.686;2023-05-16T04:43:07;9.90;99.90
54684;DHT22;40582;53.100;6.686;2023-05-16T04:45:33;10.00;99.90
54684;DHT22;40582;53.100;6.686;2023-05-16T04:48:00;10.10;99.90
54684;DHT22;40582;53.100;6.686;2023-05-16T04:50:26;10.10;99.90
54684;DHT22;40582;53.100;6.686;2023-05-16T04:52:52;10.20;99.90
54684;DHT22;40582;53.100;6.686;2023-05-16T04:55:17;10.30;99.90
54684;DHT22;40582;53.100;6.686;2023-05-16T04:57:43;10.40;99.90
54684;DHT22;40582;53.100;6.686;2023-05-16T05:00:09;10.60;99.90
54684;DHT22;40582;53.100;6.686;2023-05-16T05:02:37;10.90;99.90
54684;DHT22;40582;53.100;6.686;2023-05-16T05:05:04;10.80;99.90
54684;DHT22;40582;53.100;6.686;2023-05-16T05:07:30;10.80;99.90
54684;DHT22;40582;53.100;6.686;2023-05-16T05:09:56;10.90;99.90
54684;DHT22;40582;53.100;6.686;2023-05-16T05:12:22;11.10;99.90
54684;DHT22;40582;53.100;6.686;2023-05-16T05:14:47;11.20;99.90
54684;DHT22;40582;53.100;6.686;2023-05-16T05:17:13;11.30;99.90
54684;DHT22;40582;53.100;6.686;2023-05-16T05:19:39;11.40;99.90
54684;DHT22;40582;53.100;6.686;2023-05-16T05:22:05;11.50;99.90
54684;DHT22;40582;53.100;6.686;2023-05-16T05:24:30;11.50;99.90
54684;DHT22;40582;53.100;6.686;2023-05-16T05:26:56;11.50;99.90
54684;DHT22;40582;53.100;6.686;2023-05-16T05:29:22;11.50;99.90
54684;DHT22;40582;53.100;6.686;2023-05-16T05:31:47;11.70;99.90
54684;DHT22;40582;53.100;6.686;2023-05-16T05:34:13;12.60;99.90
54684;DHT22;40582;53.100;6.686;2023-05-16T05:36:39;12.70;99.90
54684;DHT22;40582;53.100;6.686;2023-05-16T05:39:05;13.70;99.90
54684;DHT22;40582;53.100;6.686;2023-05-16T05:41:31;15.10;99.90
54684;DHT22;40582;53.100;6.686;2023-05-16T05:43:57;14.90;99.90
54684;DHT22;40582;53.100;6.686;2023-05-16T05:46:23;16.30;99.90
54684;DHT22;40582;53.100;6.686;2023-05-16T05:48:49;17.40;99.90
54684;DHT22;40582;53.100;6.686;2023-05-16T05:51:15;18.30;99.70
54684;DHT22;40582;53.100;6.686;2023-05-16T05:53:42;19.00;98.00
54684;DHT22;40582;53.100;6.686;2023-05-16T05:56:07;19.60;96.30
54684;DHT22;40582;53.100;6.686;2023-05-16T05:58:34;20.10;95.00
54684;DHT22;40582;53.100;6.686;2023-05-16T06:00:59;20.60;93.60
54684;DHT22;40582;53.100;6.686;2023-05-16T06:03:26;21.10;92.70
54684;DHT22;40582;53.100;6.686;2023-05-16T06:05:52;21.60;91.80
54684;DHT22;40582;53.100;6.686;2023-05-16T06:08:17;21.90;90.90
54684;DHT22;40582;53.100;6.686;2023-05-16T06:10:43;22.20;90.10
54684;DHT22;40582;53.100;6.686;2023-05-16T06:13:09;22.70;88.70
54684;DHT22;40582;53.100;6.686;2023-05-16T06:15:34;23.00;86.70
54684;DHT22;40582;53.100;6.686;2023-05-16T06:18:00;23.30;85.50
54684;DHT22;40582;53.100;6.686;2023-05-16T06:20:26;23.60;83.90
54684;DHT22;40582;53.100;6.686;2023-05-16T06:22:52;23.70;83.00
54684;DHT22;40582;53.100;6.686;2023-05-16T06:25:17;23.50;82.50
54684;DHT22;40582;53.100;6.686;2023-05-16T06:27:44;24.10;81.50
54684;DHT22;40582;53.100;6.686;2023-05-16T06:30:10;22.70;81.60
54684;DHT22;40582;53.100;6.686;2023-05-16T06:32:35;22.50;83.00
54684;DHT22;40582;53.100;6.686;2023-05-16T06:35:02;22.20;83.30
54684;DHT22;40582;53.100;6.686;2023-05-16T06:37:27;22.40;83.50
54684;DHT22;40582;53.100;6.686;2023-05-16T06:39:53;22.20;83.30
54684;DHT22;40582;53.100;6.686;2023-05-16T06:42:19;23.20;82.10
54684;DHT22;40582;53.100;6.686;2023-05-16T06:44:45;23.90;80.00
54684;DHT22;40582;53.100;6.686;2023-05-16T06:47:11;22.70;80.20
54684;DHT22;40582;53.100;6.686;2023-05-16T06:49:37;21.20;82.20
54684;DHT22;40582;53.100;6.686;2023-05-16T06:52:03;20.20;84.30
54684;DHT22;40582;53.100;6.686;2023-05-16T06:54:28;19.20;85.60
54684;DHT22;40582;53.100;6.686;2023-05-16T06:56:54;18.20;86.80
54684;DHT22;40582;53.100;6.686;2023-05-16T06:59:20;17.60;88.20
54684;DHT22;40582;53.100;6.686;2023-05-16T07:01:45;18.60;87.50
54684;DHT22;40582;53.100;6.686;2023-05-16T07:04:11;19.20;85.10
54684;DHT22;40582;53.100;6.686;2023-05-16T07:06:37;20.40;82.10
54684;DHT22;40582;53.100;6.686;2023-05-16T07:09:03;21.10;79.80
54684;DHT22;40582;53.100;6.686;2023-05-16T07:11:29;21.90;78.90
54684;DHT22;40582;53.100;6.686;2023-05-16T07:13:54;22.40;78.70
54684;DHT22;40582;53.100;6.686;2023-05-16T07:16:20;23.00;77.80
54684;DHT22;40582;53.100;6.686;2023-05-16T07:18:46;21.80;78.50
54684;DHT22;40582;53.100;6.686;2023-05-16T07:21:12;22.00;78.60
54684;DHT22;40582;53.100;6.686;2023-05-16T07:23:37;21.00;78.60
54684;DHT22;40582;53.100;6.686;2023-05-16T07:26:03;21.60;78.30
54684;DHT22;40582;53.100;6.686;2023-05-16T07:28:29;21.40;78.20
54684;DHT22;40582;53.100;6.686;2023-05-16T07:30:55;21.70;78.00
54684;DHT22;40582;53.100;6.686;2023-05-16T07:33:23;22.40;77.00
54684;DHT22;40582;53.100;6.686;2023-05-16T07:35:49;23.10;75.70
54684;DHT22;40582;53.100;6.686;2023-05-16T07:38:15;23.30;75.00
54684;DHT22;40582;53.100;6.686;2023-05-16T07:40:41;23.70;74.00
54684;DHT22;40582;53.100;6.686;2023-05-16T07:43:07;23.40;73.90
54684;DHT22;40582;53.100;6.686;2023-05-16T07:45:32;23.80;74.10
54684;DHT22;40582;53.100;6.686;2023-05-16T07:47:58;23.70;74.30
54684;DHT22;40582;53.100;6.686;2023-05-16T07:50:24;22.40;75.20
54684;DHT22;40582;53.100;6.686;2023-05-16T07:52:50;21.30;77.20
54684;DHT22;40582;53.100;6.686;2023-05-16T07:55:17;20.00;78.70
54684;DHT22;40582;53.100;6.686;2023-05-16T07:57:42;19.40;80.90
54684;DHT22;40582;53.100;6.686;2023-05-16T08:00:09;19.00;81.10
54684;DHT22;40582;53.100;6.686;2023-05-16T08:02:35;20.20;80.80
54684;DHT22;40582;53.100;6.686;2023-05-16T08:05:00;19.60;81.40
54684;DHT22;40582;53.100;6.686;2023-05-16T08:07:26;19.00;81.90
54684;DHT22;40582;53.100;6.686;2023-05-16T08:09:52;19.20;81.40
54684;DHT22;40582;53.100;6.686;2023-05-16T08:12:17;20.30;80.20
54684;DHT22;40582;53.100;6.686;2023-05-16T08:14:43;20.00;79.40
54684;DHT22;40582;53.100;6.686;2023-05-16T08:17:09;19.30;79.50
54684;DHT22;40582;53.100;6.686;2023-05-16T08:19:34;18.90;79.40
54684;DHT22;40582;53.100;6.686;2023-05-16T08:22:00;18.50;79.70
54684;DHT22;40582;53.100;6.686;2023-05-16T08:24:26;18.30;80.70
54684;DHT22;40582;53.100;6.686;2023-05-16T08:26:52;18.90;79.70
54684;DHT22;40582;53.100;6.686;2023-05-16T08:29:17;19.70;79.10
54684;DHT22;40582;53.100;6.686;2023-05-16T08:31:43;18.90;78.40
54684;DHT22;40582;53.100;6.686;2023-05-16T08:34:09;19.20;79.60
54684;DHT22;40582;53.100;6.686;2023-05-16T08:36:36;20.00;78.10
54684;DHT22;40582;53.100;6.686;2023-05-16T08:39:02;20.00;78.10
54684;DHT22;40582;53.100;6.686;2023-05-16T08:41:28;19.10;80.20
54684;DHT22;40582;53.100;6.686;2023-05-16T08:43:54;18.00;83.70
54684;DHT22;40582;53.100;6.686;2023-05-16T08:46:21;17.20;89.10
54684;DHT22;40582;53.100;6.686;2023-05-16T08:48:51;16.90;90.50
54684;DHT22;40582;53.100;6.686;2023-05-16T08:51:18;17.50;92.00
54684;DHT22;40582;53.100;6.686;2023-05-16T08:53:49;17.90;91.30
54684;DHT22;40582;53.100;6.686;2023-05-16T08:56:17;18.20;91.50
54684;DHT22;40582;53.100;6.686;2023-05-16T08:58:43;18.50;91.30
54684;DHT22;40582;53.100;6.686;2023-05-16T09:01:10;18.70;90.60
54684;DHT22;40582;53.100;6.686;2023-05-16T09:03:36;19.10;90.70
54684;DHT22;40582;53.100;6.686;2023-05-16T09:06:04;19.40;90.10
54684;DHT22;40582;53.100;6.686;2023-05-16T09:08:30;19.70;90.10
54684;DHT22;40582;53.100;6.686;2023-05-16T09:10:56;19.20;89.60
54684;DHT22;40582;53.100;6.686;2023-05-16T09:13:23;18.70;89.40
54684;DHT22;40582;53.100;6.686;2023-05-16T09:16:19;18.20;90.30
54684;DHT22;40582;53.100;6.686;2023-05-16T09:18:57;17.90;91.10
54684;DHT22;40582;53.100;6.686;2023-05-16T09:21:34;18.00;91.80
54684;DHT22;40582;53.100;6.686;2023-05-16T09:24:05;17.80;91.50
54684;DHT22;40582;53.100;6.686;2023-05-16T09:26:38;17.80;90.70
54684;DHT22;40582;53.100;6.686;2023-05-16T09:29:10;18.00;90.90
54684;DHT22;40582;53.100;6.686;2023-05-16T09:31:36;18.40;90.80
54684;DHT22;40582;53.100;6.686;2023-05-16T09:34:09;18.70;90.00
54684;DHT22;40582;53.100;6.686;2023-05-16T09:36:38;19.00;87.40
54684;DHT22;40582;53.100;6.686;2023-05-16T09:39:07;19.20;87.50
54684;DHT22;40582;53.100;6.686;2023-05-16T09:41:33;19.50;86.30
54684;DHT22;40582;53.100;6.686;2023-05-16T09:44:03;19.90;87.10
54684;DHT22;40582;53.100;6.686;2023-05-16T09:46:30;20.00;85.70
54684;DHT22;40582;53.100;6.686;2023-05-16T09:48:55;20.00;85.20
54684;DHT22;40582;53.100;6.686;2023-05-16T09:51:22;19.90;85.30
54684;DHT22;40582;53.100;6.686;2023-05-16T09:53:48;19.60;84.40
54684;DHT22;40582;53.100;6.686;2023-05-16T09:56:15;19.00;84.80
54684;DHT22;40582;53.100;6.686;2023-05-16T09:58:42;18.90;84.30
54684;DHT22;40582;53.100;6.686;2023-05-16T10:01:10;18.90;84.80
54684;DHT22;40582;53.100;6.686;2023-05-16T10:03:40;18.90;85.10
54684;DHT22;40582;53.100;6.686;2023-05-16T10:06:07;19.00;86.40
54684;DHT22;40582;53.100;6.686;2023-05-16T10:08:33;19.00;86.00
54684;DHT22;40582;53.100;6.686;2023-05-16T10:11:02;19.10;86.10
54684;DHT22;40582;53.100;6.686;2023-05-16T10:13:30;18.90;85.60
54684;DHT22;40582;53.100;6.686;2023-05-16T10:15:57;18.60;85.60
54684;DHT22;40582;53.100;6.686;2023-05-16T10:18:31;18.50;86.00
54684;DHT22;40582;53.100;6.686;2023-05-16T10:21:03;18.30;84.90
54684;DHT22;40582;53.100;6.686;2023-05-16T10:23:30;18.40;85.40
54684;DHT22;40582;53.100;6.686;2023-05-16T10:25:57;18.50;85.60
54684;DHT22;40582;53.100;6.686;2023-05-16T10:28:23;18.70;86.30
54684;DHT22;40582;53.100;6.686;2023-05-16T10:30:50;18.90;85.90
54684;DHT22;40582;53.100;6.686;2023-05-16T10:33:17;18.70;83.80
54684;DHT22;40582;53.100;6.686;2023-05-16T10:35:45;18.60;83.70
54684;DHT22;40582;53.100;6.686;2023-05-16T10:38:13;18.20;87.40
54684;DHT22;40582;53.100;6.686;2023-05-16T10:40:39;17.60;91.50
54684;DHT22;40582;53.100;6.686;2023-05-16T10:43:07;17.30;95.20
54684;DHT22;40582;53.100;6.686;2023-05-16T10:45:33;17.30;97.80
54684;DHT22;40582;53.100;6.686;2023-05-16T10:48:02;17.30;99.90
54684;DHT22;40582;53.100;6.686;2023-05-16T11:01:26;17.70;99.60
54684;DHT22;40582;53.100;6.686;2023-05-16T11:06:30;18.40;97.20
54684;DHT22;40582;53.100;6.686;2023-05-16T11:14:23;18.40;94.80
54684;DHT22;40582;53.100;6.686;2023-05-16T11:22:27;19.10;92.50
54684;DHT22;40582;53.100;6.686;2023-05-16T11:27:32;18.90;91.80
54684;DHT22;40582;53.100;6.686;2023-05-16T11:32:35;19.00;93.40
54684;DHT22;40582;53.100;6.686;2023-05-16T11:35:02;18.90;93.30
54684;DHT22;40582;53.100;6.686;2023-05-16T11:37:28;18.90;92.00
54684;DHT22;40582;53.100;6.686;2023-05-16T11:39:58;19.20;92.00
54684;DHT22;40582;53.100;6.686;2023-05-16T11:42:33;19.50;90.00
54684;DHT22;40582;53.100;6.686;2023-05-16T11:45:09;19.30;90.10
54684;DHT22;40582;53.100;6.686;2023-05-16T11:47:37;19.20;89.60
54684;DHT22;40582;53.100;6.686;2023-05-16T11:50:11;18.80;89.20
54684;DHT22;40582;53.100;6.686;2023-05-16T11:52:37;18.50;85.70
54684;DHT22;40582;53.100;6.686;2023-05-16T11:55:06;18.30;90.00
54684;DHT22;40582;53.100;6.686;2023-05-16T11:57:35;18.10;89.00
54684;DHT22;40582;53.100;6.686;2023-05-16T12:00:02;17.90;88.80
54684;DHT22;40582;53.100;6.686;2023-05-16T12:02:31;17.90;89.50
54684;DHT22;40582;53.100;6.686;2023-05-16T12:04:57;18.20;89.50
54684;DHT22;40582;53.100;6.686;2023-05-16T12:07:27;18.50;90.50
54684;DHT22;40582;53.100;6.686;2023-05-16T12:09:53;18.40;90.00
54684;DHT22;40582;53.100;6.686;2023-05-16T12:12:22;18.40;89.60
54684;DHT22;40582;53.100;6.686;2023-05-16T12:14:47;18.30;90.20
54684;DHT22;40582;53.100;6.686;2023-05-16T12:17:13;18.50;90.30
54684;DHT22;40582;53.100;6.686;2023-05-16T12:19:39;18.70;90.30
54684;DHT22;40582;53.100;6.686;2023-05-16T12:22:18;18.60;89.90
54684;DHT22;40582;53.100;6.686;2023-05-16T12:24:44;18.60;88.50
54684;DHT22;40582;53.100;6.686;2023-05-16T12:27:10;18.60;87.50
54684;DHT22;40582;53.100;6.686;2023-05-16T12:29:37;18.60;87.60
54684;DHT22;40582;53.100;6.686;2023-05-16T12:32:03;18.50;87.40
54684;DHT22;40582;53.100;6.686;2023-05-16T12:34:29;18.60;88.10
54684;DHT22;40582;53.100;6.686;2023-05-16T12:36:55;18.70;89.00
54684;DHT22;40582;53.100;6.686;2023-05-16T12:39:21;18.70;88.80
54684;DHT22;40582;53.100;6.686;2023-05-16T12:41:49;18.60;87.90
54684;DHT22;40582;53.100;6.686;2023-05-16T12:44:17;18.80;87.60
54684;DHT22;40582;53.100;6.686;2023-05-16T12:46:49;18.90;86.80
54684;DHT22;40582;53.100;6.686;2023-05-16T12:49:22;18.90;86.70
54684;DHT22;40582;53.100;6.686;2023-05-16T12:51:52;18.80;87.00
54684;DHT22;40582;53.100;6.686;2023-05-16T12:54:19;18.80;87.50
54684;DHT22;40582;53.100;6.686;2023-05-16T12:56:47;19.00;88.60
54684;DHT22;40582;53.100;6.686;2023-05-16T12:59:13;18.80;87.90
54684;DHT22;40582;53.100;6.686;2023-05-16T13:01:39;18.50;88.30
54684;DHT22;40582;53.100;6.686;2023-05-16T13:04:05;18.20;89.90
54684;DHT22;40582;53.100;6.686;2023-05-16T13:06:31;17.90;90.80
54684;DHT22;40582;53.100;6.686;2023-05-16T13:08:57;17.60;91.90
54684;DHT22;40582;53.100;6.686;2023-05-16T13:11:25;17.30;92.70
54684;DHT22;40582;53.100;6.686;2023-05-16T13:13:52;17.30;93.90
54684;DHT22;40582;53.100;6.686;2023-05-16T13:16:18;17.40;94.90
54684;DHT22;40582;53.100;6.686;2023-05-16T13:18:44;17.50;94.70
54684;DHT22;40582;53.100;6.686;2023-05-16T13:21:10;17.70;94.20
54684;DHT22;40582;53.100;6.686;2023-05-16T13:23:35;17.60;94.50
54684;DHT22;40582;53.100;6.686;2023-05-16T13:26:01;17.50;94.90
54684;DHT22;40582;53.100;6.686;2023-05-16T13:28:27;17.40;94.10
54684;DHT22;40582;53.100;6.686;2023-05-16T13:30:53;17.60;93.50
54684;DHT22;40582;53.100;6.686;2023-05-16T13:33:18;17.90;93.40
54684;DHT22;40582;53.100;6.686;2023-05-16T13:35:44;18.00;93.20
54684;DHT22;40582;53.100;6.686;2023-05-16T13:38:10;17.80;93.20
54684;DHT22;40582;53.100;6.686;2023-05-16T13:40:35;17.70;93.90
54684;DHT22;40582;53.100;6.686;2023-05-16T13:43:01;17.50;93.50
54684;DHT22;40582;53.100;6.686;2023-05-16T13:45:28;17.40;93.00
54684;DHT22;40582;53.100;6.686;2023-05-16T13:47:53;17.20;92.50
54684;DHT22;40582;53.100;6.686;2023-05-16T13:50:19;17.30;93.10
54684;DHT22;40582;53.100;6.686;2023-05-16T13:52:45;17.30;92.50
54684;DHT22;40582;53.100;6.686;2023-05-16T13:55:12;17.30;92.40
54684;DHT22;40582;53.100;6.686;2023-05-16T13:57:38;17.30;93.10
54684;DHT22;40582;53.100;6.686;2023-05-16T14:00:04;17.40;94.00
54684;DHT22;40582;53.100;6.686;2023-05-16T14:02:38;17.50;94.00
54684;DHT22;40582;53.100;6.686;2023-05-16T14:05:05;17.60;93.70
54684;DHT22;40582;53.100;6.686;2023-05-16T14:07:31;17.70;92.90
54684;DHT22;40582;53.100;6.686;2023-05-16T14:09:57;17.70;92.90
54684;DHT22;40582;53.100;6.686;2023-05-16T14:12:22;17.70;92.70
54684;DHT22;40582;53.100;6.686;2023-05-16T14:14:48;17.60;93.00
54684;DHT22;40582;53.100;6.686;2023-05-16T14:17:14;17.50;93.40
54684;DHT22;40582;53.100;6.686;2023-05-16T14:19:39;17.50;93.70
54684;DHT22;40582;53.100;6.686;2023-05-16T14:22:05;17.50;93.20
54684;DHT22;40582;53.100;6.686;2023-05-16T14:24:32;17.50;92.80
54684;DHT22;40582;53.100;6.686;2023-05-16T14:26:58;17.60;92.50
54684;DHT22;40582;53.100;6.686;2023-05-16T14:29:25;17.70;92.30
54684;DHT22;40582;53.100;6.686;2023-05-16T14:31:50;17.70;92.70
54684;DHT22;40582;53.100;6.686;2023-05-16T14:34:16;17.70;92.60
54684;DHT22;40582;53.100;6.686;2023-05-16T14:36:42;17.60;92.70
54684;DHT22;40582;53.100;6.686;2023-05-16T14:39:08;17.40;92.50
54684;DHT22;40582;53.100;6.686;2023-05-16T14:41:34;17.40;92.60
54684;DHT22;40582;53.100;6.686;2023-05-16T14:44:00;17.30;92.70
54684;DHT22;40582;53.100;6.686;2023-05-16T14:46:25;17.30;93.10
54684;DHT22;40582;53.100;6.686;2023-05-16T14:48:51;17.30;92.80
54684;DHT22;40582;53.100;6.686;2023-05-16T14:51:17;17.20;93.00
54684;DHT22;40582;53.100;6.686;2023-05-16T14:53:42;17.00;93.10
54684;DHT22;40582;53.100;6.686;2023-05-16T14:56:08;16.90;93.40
54684;DHT22;40582;53.100;6.686;2023-05-16T14:58:35;16.80;93.60
54684;DHT22;40582;53.100;6.686;2023-05-16T15:01:01;16.60;94.50
54684;DHT22;40582;53.100;6.686;2023-05-16T15:03:26;16.50;95.80
54684;DHT22;40582;53.100;6.686;2023-05-16T15:05:52;16.20;96.40
54684;DHT22;40582;53.100;6.686;2023-05-16T15:08:19;16.00;97.40
54684;DHT22;40582;53.100;6.686;2023-05-16T15:10:45;16.10;98.30
54684;DHT22;40582;53.100;6.686;2023-05-16T15:13:10;16.40;98.00
54684;DHT22;40582;53.100;6.686;2023-05-16T15:15:36;16.50;98.50
54684;DHT22;40582;53.100;6.686;2023-05-16T15:18:03;16.50;98.90
54684;DHT22;40582;53.100;6.686;2023-05-16T15:20:29;16.30;98.00
54684;DHT22;40582;53.100;6.686;2023-05-16T15:22:55;16.20;99.70
54684;DHT22;40582;53.100;6.686;2023-05-16T15:25:20;16.10;99.90
54684;DHT22;40582;53.100;6.686;2023-05-16T15:27:46;16.20;99.90
54684;DHT22;40582;53.100;6.686;2023-05-16T15:30:12;16.10;99.90
54684;DHT22;40582;53.100;6.686;2023-05-16T15:32:38;16.10;99.90
54684;DHT22;40582;53.100;6.686;2023-05-16T15:35:05;15.90;99.90
54684;DHT22;40582;53.100;6.686;2023-05-16T15:37:31;15.90;99.90
54684;DHT22;40582;53.100;6.686;2023-05-16T15:39:57;15.80;99.90
54684;DHT22;40582;53.100;6.686;2023-05-16T15:42:22;15.90;99.90
54684;DHT22;40582;53.100;6.686;2023-05-16T15:44:48;16.00;99.90
54684;DHT22;40582;53.100;6.686;2023-05-16T15:47:14;16.00;99.90
54684;DHT22;40582;53.100;6.686;2023-05-16T15:49:40;16.00;99.90
54684;DHT22;40582;53.100;6.686;2023-05-16T15:52:06;15.90;99.80
54684;DHT22;40582;53.100;6.686;2023-05-16T15:54:32;16.00;99.20
54684;DHT22;40582;53.100;6.686;2023-05-16T15:56:58;16.10;99.70
54684;DHT22;40582;53.100;6.686;2023-05-16T15:59:23;16.20;98.90
54684;DHT22;40582;53.100;6.686;2023-05-16T16:01:49;16.10;98.60
54684;DHT22;40582;53.100;6.686;2023-05-16T16:04:17;15.80;98.30